<?xml version="1.0" encoding="UTF-8" standalone="no" ?>
<gpx xmlns="http://www.topografix.com/GPX/1/1" xmlns:xsi="http://www.w3.org/2001/XMLSchema-instance" xsi:schemaLocation="http://www.topografix.com/GPX/1/1 http://www.topografix.com/GPX/1/1/gpx.xsd" version="1.1" creator="VisuGPX - https://www.visugpx.com">
  <metadata>
    <name>Le tour du Mas Dieu</name>
  </metadata>
  <wpt lat="43.61353" lon="3.71081">
    <ele>187</ele>
    <name><![CDATA[Parking]]></name>
    <type><![CDATA[GENERIC]]></type>
  </wpt>
  <wpt lat="43.6135" lon="3.70909">
    <ele>181</ele>
    <name><![CDATA[Croisement, à droite]]></name>
    <type><![CDATA[GENERIC]]></type>
  </wpt>
  <wpt lat="43.62478" lon="3.69889">
    <ele>151</ele>
    <name><![CDATA[Bifurcation à droite]]></name>
    <type><![CDATA[GENERIC]]></type>
  </wpt>
  <wpt lat="43.62708" lon="3.69988">
    <ele>144</ele>
    <name><![CDATA[Ancienne voie de chemin de fer]]></name>
    <type><![CDATA[GENERIC]]></type>
  </wpt>
  <wpt lat="43.62619" lon="3.70494">
    <ele>150</ele>
    <name><![CDATA[D27]]></name>
    <type><![CDATA[GENERIC]]></type>
  </wpt>
  <wpt lat="43.62459" lon="3.72896">
    <ele>120</ele>
    <name><![CDATA[Croisement, tout droit]]></name>
    <type><![CDATA[GENERIC]]></type>
  </wpt>
  <wpt lat="43.6247" lon="3.73649">
    <ele>115</ele>
    <name><![CDATA[Chemin à droite]]></name>
    <type><![CDATA[GENERIC]]></type>
  </wpt>
  <wpt lat="43.62238" lon="3.72564">
    <ele>128</ele>
    <name><![CDATA[Piste du Mas Dieu]]></name>
    <type><![CDATA[GENERIC]]></type>
  </wpt>
  <wpt lat="43.62123" lon="3.72117">
    <ele>152</ele>
    <name><![CDATA[Gazoduc]]></name>
    <type><![CDATA[GENERIC]]></type>
  </wpt>
  <wpt lat="43.61676" lon="3.71241">
    <ele>187</ele>
    <name><![CDATA[Bifurcation à gauche]]></name>
    <type><![CDATA[GENERIC]]></type>
  </wpt>
  <wpt lat="43.61353" lon="3.71085">
    <ele>188</ele>
    <name><![CDATA[Parking]]></name>
    <type><![CDATA[GENERIC]]></type>
  </wpt>
  <trk>
    <name><![CDATA[Le tour du Mas Dieu]]></name>
    <trkseg>
      <trkpt lat="43.61353" lon="3.71081">
        <ele>187</ele>
        <time>2024-09-09T12:41:10.000Z</time>
      </trkpt>
      <trkpt lat="43.61351" lon="3.71047">
        <ele>185</ele>
        <time>2024-09-09T12:41:31.000Z</time>
      </trkpt>
      <trkpt lat="43.6135" lon="3.71015">
        <ele>184</ele>
        <time>2024-09-09T12:41:49.000Z</time>
      </trkpt>
      <trkpt lat="43.61357" lon="3.7098">
        <ele>184</ele>
        <time>2024-09-09T12:42:18.000Z</time>
      </trkpt>
      <trkpt lat="43.61351" lon="3.70946">
        <ele>182</ele>
        <time>2024-09-09T12:42:39.000Z</time>
      </trkpt>
      <trkpt lat="43.6135" lon="3.70909">
        <ele>181</ele>
        <time>2024-09-09T12:43:05.000Z</time>
      </trkpt>
      <trkpt lat="43.61351" lon="3.70904">
        <ele>181</ele>
        <time>2024-09-09T12:43:09.000Z</time>
      </trkpt>
      <trkpt lat="43.61352" lon="3.70893">
        <ele>181</ele>
        <time>2024-09-09T12:43:18.000Z</time>
      </trkpt>
      <trkpt lat="43.61351" lon="3.70889">
        <ele>181</ele>
        <time>2024-09-09T12:43:21.000Z</time>
      </trkpt>
      <trkpt lat="43.61381" lon="3.70852">
        <ele>186</ele>
        <time>2024-09-09T12:44:58.000Z</time>
      </trkpt>
      <trkpt lat="43.61428" lon="3.70779">
        <ele>194</ele>
        <time>2024-09-09T12:47:41.000Z</time>
      </trkpt>
      <trkpt lat="43.61609" lon="3.70554">
        <ele>191</ele>
        <time>2024-09-09T12:52:21.000Z</time>
      </trkpt>
      <trkpt lat="43.61685" lon="3.70512">
        <ele>192</ele>
        <time>2024-09-09T12:54:04.000Z</time>
      </trkpt>
      <trkpt lat="43.6177" lon="3.70454">
        <ele>191</ele>
        <time>2024-09-09T12:55:53.000Z</time>
      </trkpt>
      <trkpt lat="43.61798" lon="3.70432">
        <ele>191</ele>
        <time>2024-09-09T12:56:30.000Z</time>
      </trkpt>
      <trkpt lat="43.61821" lon="3.70405">
        <ele>190</ele>
        <time>2024-09-09T12:57:05.000Z</time>
      </trkpt>
      <trkpt lat="43.61824" lon="3.70409">
        <ele>190</ele>
        <time>2024-09-09T12:53:47.000Z</time>
      </trkpt>
      <trkpt lat="43.61821" lon="3.70405">
        <ele>190</ele>
        <time>2024-09-09T12:53:51.000Z</time>
      </trkpt>
      <trkpt lat="43.61826" lon="3.70399">
        <ele>190</ele>
        <time>2024-09-09T12:53:58.000Z</time>
      </trkpt>
      <trkpt lat="43.61859" lon="3.70347">
        <ele>189</ele>
        <time>2024-09-09T12:54:56.000Z</time>
      </trkpt>
      <trkpt lat="43.61888" lon="3.70289">
        <ele>186</ele>
        <time>2024-09-09T12:55:55.000Z</time>
      </trkpt>
      <trkpt lat="43.61965" lon="3.70107">
        <ele>178</ele>
        <time>2024-09-09T12:58:49.000Z</time>
      </trkpt>
      <trkpt lat="43.61984" lon="3.7007">
        <ele>176</ele>
        <time>2024-09-09T12:59:27.000Z</time>
      </trkpt>
      <trkpt lat="43.61994" lon="3.70037">
        <ele>173</ele>
        <time>2024-09-09T12:59:57.000Z</time>
      </trkpt>
      <trkpt lat="43.61995" lon="3.70026">
        <ele>173</ele>
        <time>2024-09-09T13:00:06.000Z</time>
      </trkpt>
      <trkpt lat="43.61995" lon="3.70026">
        <ele>173</ele>
        <time>2024-09-09T13:00:06.000Z</time>
      </trkpt>
      <trkpt lat="43.61996" lon="3.70027">
        <ele>173</ele>
        <time>2024-09-09T13:00:07.000Z</time>
      </trkpt>
      <trkpt lat="43.62016" lon="3.70039">
        <ele>172</ele>
        <time>2024-09-09T13:00:33.000Z</time>
      </trkpt>
      <trkpt lat="43.6203" lon="3.70038">
        <ele>171</ele>
        <time>2024-09-09T13:00:48.000Z</time>
      </trkpt>
      <trkpt lat="43.6211" lon="3.7001">
        <ele>167</ele>
        <time>2024-09-09T13:02:23.000Z</time>
      </trkpt>
      <trkpt lat="43.62121" lon="3.70003">
        <ele>166</ele>
        <time>2024-09-09T13:02:37.000Z</time>
      </trkpt>
      <trkpt lat="43.62223" lon="3.6996">
        <ele>163</ele>
        <time>2024-09-09T13:04:39.000Z</time>
      </trkpt>
      <trkpt lat="43.62285" lon="3.69929">
        <ele>163</ele>
        <time>2024-09-09T13:05:54.000Z</time>
      </trkpt>
      <trkpt lat="43.62348" lon="3.69916">
        <ele>160</ele>
        <time>2024-09-09T13:07:07.000Z</time>
      </trkpt>
      <trkpt lat="43.62443" lon="3.69872">
        <ele>154</ele>
        <time>2024-09-09T13:09:01.000Z</time>
      </trkpt>
      <trkpt lat="43.62468" lon="3.69885">
        <ele>151</ele>
        <time>2024-09-09T13:09:32.000Z</time>
      </trkpt>
      <trkpt lat="43.62474" lon="3.69883">
        <ele>151</ele>
        <time>2024-09-09T13:09:40.000Z</time>
      </trkpt>
      <trkpt lat="43.62478" lon="3.69889">
        <ele>151</ele>
        <time>2024-09-09T13:06:10.000Z</time>
      </trkpt>
      <trkpt lat="43.62474" lon="3.69883">
        <ele>151</ele>
        <time>2024-09-09T13:06:16.000Z</time>
      </trkpt>
      <trkpt lat="43.62477" lon="3.6988">
        <ele>151</ele>
        <time>2024-09-09T13:06:20.000Z</time>
      </trkpt>
      <trkpt lat="43.6248" lon="3.69877">
        <ele>151</ele>
        <time>2024-09-09T13:06:24.000Z</time>
      </trkpt>
      <trkpt lat="43.62489" lon="3.699">
        <ele>152</ele>
        <time>2024-09-09T13:06:56.000Z</time>
      </trkpt>
      <trkpt lat="43.62505" lon="3.69921">
        <ele>154</ele>
        <time>2024-09-09T13:07:42.000Z</time>
      </trkpt>
      <trkpt lat="43.62518" lon="3.6995">
        <ele>156</ele>
        <time>2024-09-09T13:08:31.000Z</time>
      </trkpt>
      <trkpt lat="43.62564" lon="3.70022">
        <ele>155</ele>
        <time>2024-09-09T13:09:50.000Z</time>
      </trkpt>
      <trkpt lat="43.62568" lon="3.70022">
        <ele>155</ele>
        <time>2024-09-09T13:09:55.000Z</time>
      </trkpt>
      <trkpt lat="43.62572" lon="3.70006">
        <ele>155</ele>
        <time>2024-09-09T13:10:09.000Z</time>
      </trkpt>
      <trkpt lat="43.62576" lon="3.70002">
        <ele>154</ele>
        <time>2024-09-09T13:10:14.000Z</time>
      </trkpt>
      <trkpt lat="43.62579" lon="3.70006">
        <ele>154</ele>
        <time>2024-09-09T13:10:19.000Z</time>
      </trkpt>
      <trkpt lat="43.62584" lon="3.7005">
        <ele>154</ele>
        <time>2024-09-09T13:10:57.000Z</time>
      </trkpt>
      <trkpt lat="43.62599" lon="3.70067">
        <ele>152</ele>
        <time>2024-09-09T13:11:19.000Z</time>
      </trkpt>
      <trkpt lat="43.62615" lon="3.70068">
        <ele>151</ele>
        <time>2024-09-09T13:11:38.000Z</time>
      </trkpt>
      <trkpt lat="43.62615" lon="3.70068">
        <ele>151</ele>
        <time>2024-09-09T13:11:38.000Z</time>
      </trkpt>
      <trkpt lat="43.62622" lon="3.70066">
        <ele>150</ele>
        <time>2024-09-09T13:11:46.000Z</time>
      </trkpt>
      <trkpt lat="43.6266" lon="3.70038">
        <ele>147</ele>
        <time>2024-09-09T13:12:36.000Z</time>
      </trkpt>
      <trkpt lat="43.62692" lon="3.70005">
        <ele>145</ele>
        <time>2024-09-09T13:13:22.000Z</time>
      </trkpt>
      <trkpt lat="43.62695" lon="3.69996">
        <ele>145</ele>
        <time>2024-09-09T13:13:30.000Z</time>
      </trkpt>
      <trkpt lat="43.62694" lon="3.69996">
        <ele>145</ele>
        <time>2024-09-09T13:13:31.000Z</time>
      </trkpt>
      <trkpt lat="43.62708" lon="3.69988">
        <ele>144</ele>
        <time>2024-09-09T13:13:40.000Z</time>
      </trkpt>
      <trkpt lat="43.62707" lon="3.69987">
        <ele>144</ele>
        <time>2024-09-09T13:13:40.000Z</time>
      </trkpt>
      <trkpt lat="43.62705" lon="3.70014">
        <ele>144</ele>
        <time>2024-09-09T13:14:02.000Z</time>
      </trkpt>
      <trkpt lat="43.62677" lon="3.70194">
        <ele>146</ele>
        <time>2024-09-09T13:16:55.000Z</time>
      </trkpt>
      <trkpt lat="43.62662" lon="3.7027">
        <ele>146</ele>
        <time>2024-09-09T13:18:00.000Z</time>
      </trkpt>
      <trkpt lat="43.62662" lon="3.7027">
        <ele>146</ele>
        <time>2024-09-09T13:18:00.000Z</time>
      </trkpt>
      <trkpt lat="43.6266" lon="3.70278">
        <ele>147</ele>
        <time>2024-09-09T13:18:17.000Z</time>
      </trkpt>
      <trkpt lat="43.62618" lon="3.70498">
        <ele>150</ele>
        <time>2024-09-09T13:21:57.000Z</time>
      </trkpt>
      <trkpt lat="43.62619" lon="3.70494">
        <ele>150</ele>
        <time>2024-09-09T13:22:01.000Z</time>
      </trkpt>
      <trkpt lat="43.62618" lon="3.70498">
        <ele>150</ele>
        <time>2024-09-09T13:22:05.000Z</time>
      </trkpt>
      <trkpt lat="43.62616" lon="3.70517">
        <ele>150</ele>
        <time>2024-09-09T13:22:21.000Z</time>
      </trkpt>
      <trkpt lat="43.6258" lon="3.7072">
        <ele>150</ele>
        <time>2024-09-09T13:25:14.000Z</time>
      </trkpt>
      <trkpt lat="43.62576" lon="3.70783">
        <ele>148</ele>
        <time>2024-09-09T13:26:06.000Z</time>
      </trkpt>
      <trkpt lat="43.62578" lon="3.70818">
        <ele>148</ele>
        <time>2024-09-09T13:26:35.000Z</time>
      </trkpt>
      <trkpt lat="43.62585" lon="3.7087">
        <ele>147</ele>
        <time>2024-09-09T13:27:19.000Z</time>
      </trkpt>
      <trkpt lat="43.62625" lon="3.71048">
        <ele>144</ele>
        <time>2024-09-09T13:29:53.000Z</time>
      </trkpt>
      <trkpt lat="43.62631" lon="3.7113">
        <ele>143</ele>
        <time>2024-09-09T13:31:02.000Z</time>
      </trkpt>
      <trkpt lat="43.62629" lon="3.71183">
        <ele>142</ele>
        <time>2024-09-09T13:31:46.000Z</time>
      </trkpt>
      <trkpt lat="43.62622" lon="3.71223">
        <ele>142</ele>
        <time>2024-09-09T13:32:20.000Z</time>
      </trkpt>
      <trkpt lat="43.62576" lon="3.71419">
        <ele>140</ele>
        <time>2024-09-09T13:35:11.000Z</time>
      </trkpt>
      <trkpt lat="43.62475" lon="3.71805">
        <ele>136</ele>
        <time>2024-09-09T13:40:51.000Z</time>
      </trkpt>
      <trkpt lat="43.62454" lon="3.71907">
        <ele>134</ele>
        <time>2024-09-09T13:42:18.000Z</time>
      </trkpt>
      <trkpt lat="43.62444" lon="3.72009">
        <ele>134</ele>
        <time>2024-09-09T13:43:43.000Z</time>
      </trkpt>
      <trkpt lat="43.62432" lon="3.72269">
        <ele>130</ele>
        <time>2024-09-09T13:47:19.000Z</time>
      </trkpt>
      <trkpt lat="43.62431" lon="3.72514">
        <ele>128</ele>
        <time>2024-09-09T13:50:42.000Z</time>
      </trkpt>
      <trkpt lat="43.62436" lon="3.72661">
        <ele>123</ele>
        <time>2024-09-09T13:52:44.000Z</time>
      </trkpt>
      <trkpt lat="43.62455" lon="3.72897">
        <ele>120</ele>
        <time>2024-09-09T13:56:00.000Z</time>
      </trkpt>
      <trkpt lat="43.62459" lon="3.72898">
        <ele>120</ele>
        <time>2024-09-09T13:56:05.000Z</time>
      </trkpt>
      <trkpt lat="43.62459" lon="3.72896">
        <ele>120</ele>
        <time>2024-09-09T13:45:14.000Z</time>
      </trkpt>
      <trkpt lat="43.6246" lon="3.7293">
        <ele>119</ele>
        <time>2024-09-09T13:45:41.000Z</time>
      </trkpt>
      <trkpt lat="43.6246" lon="3.72965">
        <ele>119</ele>
        <time>2024-09-09T13:45:56.000Z</time>
      </trkpt>
      <trkpt lat="43.62463" lon="3.73005">
        <ele>118</ele>
        <time>2024-09-09T13:46:16.000Z</time>
      </trkpt>
      <trkpt lat="43.62464" lon="3.73041">
        <ele>118</ele>
        <time>2024-09-09T13:46:36.000Z</time>
      </trkpt>
      <trkpt lat="43.62468" lon="3.73087">
        <ele>117</ele>
        <time>2024-09-09T13:47:03.000Z</time>
      </trkpt>
      <trkpt lat="43.62472" lon="3.73125">
        <ele>117</ele>
        <time>2024-09-09T13:47:27.000Z</time>
      </trkpt>
      <trkpt lat="43.62471" lon="3.73168">
        <ele>116</ele>
        <time>2024-09-09T13:47:54.000Z</time>
      </trkpt>
      <trkpt lat="43.62468" lon="3.73212">
        <ele>117</ele>
        <time>2024-09-09T13:48:18.000Z</time>
      </trkpt>
      <trkpt lat="43.62478" lon="3.7324">
        <ele>116</ele>
        <time>2024-09-09T13:48:37.000Z</time>
      </trkpt>
      <trkpt lat="43.62487" lon="3.73274">
        <ele>117</ele>
        <time>2024-09-09T13:49:02.000Z</time>
      </trkpt>
      <trkpt lat="43.62489" lon="3.73307">
        <ele>116</ele>
        <time>2024-09-09T13:49:22.000Z</time>
      </trkpt>
      <trkpt lat="43.62491" lon="3.73339">
        <ele>116</ele>
        <time>2024-09-09T13:49:42.000Z</time>
      </trkpt>
      <trkpt lat="43.62493" lon="3.73371">
        <ele>116</ele>
        <time>2024-09-09T13:50:07.000Z</time>
      </trkpt>
      <trkpt lat="43.62494" lon="3.73404">
        <ele>116</ele>
        <time>2024-09-09T13:50:27.000Z</time>
      </trkpt>
      <trkpt lat="43.62494" lon="3.73438">
        <ele>116</ele>
        <time>2024-09-09T13:50:47.000Z</time>
      </trkpt>
      <trkpt lat="43.62496" lon="3.73479">
        <ele>116</ele>
        <time>2024-09-09T13:51:12.000Z</time>
      </trkpt>
      <trkpt lat="43.62494" lon="3.73514">
        <ele>116</ele>
        <time>2024-09-09T13:51:32.000Z</time>
      </trkpt>
      <trkpt lat="43.62491" lon="3.73548">
        <ele>116</ele>
        <time>2024-09-09T13:51:52.000Z</time>
      </trkpt>
      <trkpt lat="43.62485" lon="3.73584">
        <ele>117</ele>
        <time>2024-09-09T13:52:15.000Z</time>
      </trkpt>
      <trkpt lat="43.62479" lon="3.73617">
        <ele>115</ele>
        <time>2024-09-09T13:52:34.000Z</time>
      </trkpt>
      <trkpt lat="43.6247" lon="3.73649">
        <ele>115</ele>
        <time>2024-09-09T13:52:54.000Z</time>
      </trkpt>
      <trkpt lat="43.62469" lon="3.73648">
        <ele>115</ele>
        <time>2024-09-09T13:52:55.000Z</time>
      </trkpt>
      <trkpt lat="43.62463" lon="3.73668">
        <ele>116</ele>
        <time>2024-09-09T13:53:23.000Z</time>
      </trkpt>
      <trkpt lat="43.62461" lon="3.73666">
        <ele>116</ele>
        <time>2024-09-09T13:53:26.000Z</time>
      </trkpt>
      <trkpt lat="43.62441" lon="3.73669">
        <ele>119</ele>
        <time>2024-09-09T13:54:20.000Z</time>
      </trkpt>
      <trkpt lat="43.62418" lon="3.73685">
        <ele>121</ele>
        <time>2024-09-09T13:55:10.000Z</time>
      </trkpt>
      <trkpt lat="43.62404" lon="3.73685">
        <ele>122</ele>
        <time>2024-09-09T13:55:37.000Z</time>
      </trkpt>
      <trkpt lat="43.62392" lon="3.73691">
        <ele>123</ele>
        <time>2024-09-09T13:56:01.000Z</time>
      </trkpt>
      <trkpt lat="43.62377" lon="3.73684">
        <ele>125</ele>
        <time>2024-09-09T13:56:41.000Z</time>
      </trkpt>
      <trkpt lat="43.62377" lon="3.73684">
        <ele>125</ele>
        <time>2024-09-09T13:56:41.000Z</time>
      </trkpt>
      <trkpt lat="43.62377" lon="3.73668">
        <ele>126</ele>
        <time>2024-09-09T13:57:04.000Z</time>
      </trkpt>
      <trkpt lat="43.62377" lon="3.73601">
        <ele>131</ele>
        <time>2024-09-09T13:58:51.000Z</time>
      </trkpt>
      <trkpt lat="43.62382" lon="3.73551">
        <ele>134</ele>
        <time>2024-09-09T14:00:04.000Z</time>
      </trkpt>
      <trkpt lat="43.62379" lon="3.7352">
        <ele>135</ele>
        <time>2024-09-09T14:00:40.000Z</time>
      </trkpt>
      <trkpt lat="43.62386" lon="3.73517">
        <ele>135</ele>
        <time>2024-09-09T13:57:31.000Z</time>
      </trkpt>
      <trkpt lat="43.62379" lon="3.7352">
        <ele>135</ele>
        <time>2024-09-09T13:57:40.000Z</time>
      </trkpt>
      <trkpt lat="43.62378" lon="3.73513">
        <ele>135</ele>
        <time>2024-09-09T13:57:46.000Z</time>
      </trkpt>
      <trkpt lat="43.62307" lon="3.73358">
        <ele>137</ele>
        <time>2024-09-09T14:00:38.000Z</time>
      </trkpt>
      <trkpt lat="43.62295" lon="3.73346">
        <ele>137</ele>
        <time>2024-09-09T14:00:55.000Z</time>
      </trkpt>
      <trkpt lat="43.62252" lon="3.73327">
        <ele>137</ele>
        <time>2024-09-09T14:01:47.000Z</time>
      </trkpt>
      <trkpt lat="43.6224" lon="3.73317">
        <ele>137</ele>
        <time>2024-09-09T14:02:03.000Z</time>
      </trkpt>
      <trkpt lat="43.62222" lon="3.73292">
        <ele>137</ele>
        <time>2024-09-09T14:02:32.000Z</time>
      </trkpt>
      <trkpt lat="43.6221" lon="3.73226">
        <ele>134</ele>
        <time>2024-09-09T14:03:29.000Z</time>
      </trkpt>
      <trkpt lat="43.62192" lon="3.73066">
        <ele>141</ele>
        <time>2024-09-09T14:06:55.000Z</time>
      </trkpt>
      <trkpt lat="43.62191" lon="3.73046">
        <ele>142</ele>
        <time>2024-09-09T14:07:22.000Z</time>
      </trkpt>
      <trkpt lat="43.62198" lon="3.72997">
        <ele>144</ele>
        <time>2024-09-09T14:08:24.000Z</time>
      </trkpt>
      <trkpt lat="43.62196" lon="3.72987">
        <ele>144</ele>
        <time>2024-09-09T14:08:32.000Z</time>
      </trkpt>
      <trkpt lat="43.62171" lon="3.72954">
        <ele>144</ele>
        <time>2024-09-09T14:09:12.000Z</time>
      </trkpt>
      <trkpt lat="43.62131" lon="3.72866">
        <ele>139</ele>
        <time>2024-09-09T14:10:38.000Z</time>
      </trkpt>
      <trkpt lat="43.62124" lon="3.72857">
        <ele>138</ele>
        <time>2024-09-09T14:10:49.000Z</time>
      </trkpt>
      <trkpt lat="43.62125" lon="3.72856">
        <ele>138</ele>
        <time>2024-09-09T14:07:17.000Z</time>
      </trkpt>
      <trkpt lat="43.62121" lon="3.72824">
        <ele>134</ele>
        <time>2024-09-09T14:07:42.000Z</time>
      </trkpt>
      <trkpt lat="43.6214" lon="3.72797">
        <ele>129</ele>
        <time>2024-09-09T14:08:07.000Z</time>
      </trkpt>
      <trkpt lat="43.6216" lon="3.7278">
        <ele>127</ele>
        <time>2024-09-09T14:08:32.000Z</time>
      </trkpt>
      <trkpt lat="43.62184" lon="3.7281">
        <ele>129</ele>
        <time>2024-09-09T14:10:16.000Z</time>
      </trkpt>
      <trkpt lat="43.62194" lon="3.72777">
        <ele>132</ele>
        <time>2024-09-09T14:11:01.000Z</time>
      </trkpt>
      <trkpt lat="43.62214" lon="3.72762">
        <ele>134</ele>
        <time>2024-09-09T14:11:26.000Z</time>
      </trkpt>
      <trkpt lat="43.62218" lon="3.72727">
        <ele>134</ele>
        <time>2024-09-09T14:11:55.000Z</time>
      </trkpt>
      <trkpt lat="43.6221" lon="3.72693">
        <ele>134</ele>
        <time>2024-09-09T14:12:20.000Z</time>
      </trkpt>
      <trkpt lat="43.62213" lon="3.72669">
        <ele>133</ele>
        <time>2024-09-09T14:12:40.000Z</time>
      </trkpt>
      <trkpt lat="43.62205" lon="3.72616">
        <ele>132</ele>
        <time>2024-09-09T14:13:25.000Z</time>
      </trkpt>
      <trkpt lat="43.62238" lon="3.72564">
        <ele>128</ele>
        <time>2024-09-09T14:14:56.000Z</time>
      </trkpt>
      <trkpt lat="43.62237" lon="3.7256">
        <ele>129</ele>
        <time>2024-09-09T14:15:10.000Z</time>
      </trkpt>
      <trkpt lat="43.6223" lon="3.72539">
        <ele>130</ele>
        <time>2024-09-09T14:15:40.000Z</time>
      </trkpt>
      <trkpt lat="43.62228" lon="3.72515">
        <ele>131</ele>
        <time>2024-09-09T14:16:10.000Z</time>
      </trkpt>
      <trkpt lat="43.62234" lon="3.72468">
        <ele>134</ele>
        <time>2024-09-09T14:17:20.000Z</time>
      </trkpt>
      <trkpt lat="43.62239" lon="3.72383">
        <ele>135</ele>
        <time>2024-09-09T14:18:41.000Z</time>
      </trkpt>
      <trkpt lat="43.62222" lon="3.72293">
        <ele>137</ele>
        <time>2024-09-09T14:20:19.000Z</time>
      </trkpt>
      <trkpt lat="43.62204" lon="3.72241">
        <ele>140</ele>
        <time>2024-09-09T14:21:38.000Z</time>
      </trkpt>
      <trkpt lat="43.62156" lon="3.72183">
        <ele>149</ele>
        <time>2024-09-09T14:24:24.000Z</time>
      </trkpt>
      <trkpt lat="43.62127" lon="3.72118">
        <ele>152</ele>
        <time>2024-09-09T14:25:58.000Z</time>
      </trkpt>
      <trkpt lat="43.62123" lon="3.72117">
        <ele>152</ele>
        <time>2024-09-09T14:21:23.000Z</time>
      </trkpt>
      <trkpt lat="43.62127" lon="3.72118">
        <ele>152</ele>
        <time>2024-09-09T14:21:27.000Z</time>
      </trkpt>
      <trkpt lat="43.6212" lon="3.7212">
        <ele>152</ele>
        <time>2024-09-09T14:21:36.000Z</time>
      </trkpt>
      <trkpt lat="43.62109" lon="3.72122">
        <ele>153</ele>
        <time>2024-09-09T14:21:59.000Z</time>
      </trkpt>
      <trkpt lat="43.62055" lon="3.72037">
        <ele>156</ele>
        <time>2024-09-09T14:24:04.000Z</time>
      </trkpt>
      <trkpt lat="43.62047" lon="3.72031">
        <ele>157</ele>
        <time>2024-09-09T14:24:24.000Z</time>
      </trkpt>
      <trkpt lat="43.62044" lon="3.72016">
        <ele>158</ele>
        <time>2024-09-09T14:24:47.000Z</time>
      </trkpt>
      <trkpt lat="43.62026" lon="3.71977">
        <ele>160</ele>
        <time>2024-09-09T14:25:46.000Z</time>
      </trkpt>
      <trkpt lat="43.61996" lon="3.71884">
        <ele>167</ele>
        <time>2024-09-09T14:28:22.000Z</time>
      </trkpt>
      <trkpt lat="43.61974" lon="3.718">
        <ele>171</ele>
        <time>2024-09-09T14:30:17.000Z</time>
      </trkpt>
      <trkpt lat="43.61962" lon="3.71793">
        <ele>171</ele>
        <time>2024-09-09T14:30:33.000Z</time>
      </trkpt>
      <trkpt lat="43.61951" lon="3.71782">
        <ele>172</ele>
        <time>2024-09-09T14:30:59.000Z</time>
      </trkpt>
      <trkpt lat="43.61837" lon="3.71556">
        <ele>177</ele>
        <time>2024-09-09T14:35:39.000Z</time>
      </trkpt>
      <trkpt lat="43.61816" lon="3.71522">
        <ele>181</ele>
        <time>2024-09-09T14:36:57.000Z</time>
      </trkpt>
      <trkpt lat="43.61811" lon="3.71503">
        <ele>182</ele>
        <time>2024-09-09T14:37:24.000Z</time>
      </trkpt>
      <trkpt lat="43.61808" lon="3.71503">
        <ele>182</ele>
        <time>2024-09-09T14:37:27.000Z</time>
      </trkpt>
      <trkpt lat="43.61676" lon="3.71241">
        <ele>187</ele>
        <time>2024-09-09T14:42:43.000Z</time>
      </trkpt>
      <trkpt lat="43.61664" lon="3.71246">
        <ele>186</ele>
        <time>2024-09-09T14:42:57.000Z</time>
      </trkpt>
      <trkpt lat="43.61641" lon="3.71254">
        <ele>185</ele>
        <time>2024-09-09T14:43:24.000Z</time>
      </trkpt>
      <trkpt lat="43.61631" lon="3.71248">
        <ele>184</ele>
        <time>2024-09-09T14:43:37.000Z</time>
      </trkpt>
      <trkpt lat="43.61573" lon="3.71197">
        <ele>181</ele>
        <time>2024-09-09T14:44:55.000Z</time>
      </trkpt>
      <trkpt lat="43.61522" lon="3.71159">
        <ele>182</ele>
        <time>2024-09-09T14:46:12.000Z</time>
      </trkpt>
      <trkpt lat="43.61489" lon="3.71159">
        <ele>182</ele>
        <time>2024-09-09T14:46:50.000Z</time>
      </trkpt>
      <trkpt lat="43.61359" lon="3.71197">
        <ele>191</ele>
        <time>2024-09-09T14:50:55.000Z</time>
      </trkpt>
      <trkpt lat="43.61345" lon="3.71195">
        <ele>192</ele>
        <time>2024-09-09T14:51:21.000Z</time>
      </trkpt>
      <trkpt lat="43.61334" lon="3.71187">
        <ele>192</ele>
        <time>2024-09-09T14:51:36.000Z</time>
      </trkpt>
      <trkpt lat="43.61322" lon="3.71155">
        <ele>191</ele>
        <time>2024-09-09T14:52:06.000Z</time>
      </trkpt>
      <trkpt lat="43.61319" lon="3.71158">
        <ele>191</ele>
        <time>2024-09-09T14:52:10.000Z</time>
      </trkpt>
      <trkpt lat="43.61306" lon="3.71173">
        <ele>192</ele>
        <time>2024-09-09T14:52:40.000Z</time>
      </trkpt>
      <trkpt lat="43.61306" lon="3.7116">
        <ele>191</ele>
        <time>2024-09-09T14:52:51.000Z</time>
      </trkpt>
      <trkpt lat="43.61315" lon="3.71142">
        <ele>190</ele>
        <time>2024-09-09T14:53:09.000Z</time>
      </trkpt>
      <trkpt lat="43.61315" lon="3.71142">
        <ele>190</ele>
        <time>2024-09-09T14:53:09.000Z</time>
      </trkpt>
      <trkpt lat="43.61328" lon="3.71125">
        <ele>188</ele>
        <time>2024-09-09T14:53:29.000Z</time>
      </trkpt>
      <trkpt lat="43.61343" lon="3.71101">
        <ele>188</ele>
        <time>2024-09-09T14:53:56.000Z</time>
      </trkpt>
      <trkpt lat="43.61346" lon="3.71085">
        <ele>187</ele>
        <time>2024-09-09T14:54:10.000Z</time>
      </trkpt>
      <trkpt lat="43.61353" lon="3.71085">
        <ele>188</ele>
        <time>2024-09-09T14:48:17.000Z</time>
      </trkpt>
    </trkseg>
  </trk>
</gpx>